Sparland, Illinois
Current Conditions -  °F | °C
As of 6:15 AM on Sunday 23 Nov 2014 (Local Time) from KC75 Reporting Station
Broken Clouds Broken Clouds  
Wind Chill: 50°   Ceiling: 8500
Heat Index: 50°   Visibility: 10mi
Dew Point: 42°   Wind: 10mph
Humidity: 74%   Direction: 180°S
Pressure: 29.72"   Gusts: NA
Location:  41.03°N, 89.44°W
Report Text: KC75 231215Z AUTO 18009KT 10SM SCT060 SCT070 BKN085 10/06 A2972 RMK AO2 T01000055
Loading
Personal Weather Stations






























Interactive Weather Map New forecast layout! Learn more

10-Day Weather Forecast

Advertisements
Track Severe Weather on mobile